sensor_id;sensor_type;location;lat;lon;timestamp;P1;durP1;ratioP1;P2;durP2;ratioP2
12445;SDS011;6287;50.984;7.022;2024-01-15T00:01:04;19.60;;;8.83;;
12445;SDS011;6287;50.984;7.022;2024-01-15T00:03:32;18.67;;;9.67;;
12445;SDS011;6287;50.984;7.022;2024-01-15T00:05:58;22.10;;;9.60;;
12445;SDS011;6287;50.984;7.022;2024-01-15T00:08:24;17.67;;;9.30;;
12445;SDS011;6287;50.984;7.022;2024-01-15T00:10:49;24.93;;;9.93;;
12445;SDS011;6287;50.984;7.022;2024-01-15T00:13:16;25.23;;;10.53;;
12445;SDS011;6287;50.984;7.022;2024-01-15T00:15:41;23.13;;;9.37;;
12445;SDS011;6287;50.984;7.022;2024-01-15T00:18:07;23.93;;;9.47;;
12445;SDS011;6287;50.984;7.022;2024-01-15T00:20:34;26.97;;;10.53;;
12445;SDS011;6287;50.984;7.022;2024-01-15T00:23:00;24.13;;;9.63;;
12445;SDS011;6287;50.984;7.022;2024-01-15T00:25:28;25.17;;;10.70;;
12445;SDS011;6287;50.984;7.022;2024-01-15T00:28:01;25.60;;;10.43;;
12445;SDS011;6287;50.984;7.022;2024-01-15T00:30:31;24.93;;;9.43;;
12445;SDS011;6287;50.984;7.022;2024-01-15T00:32:59;22.97;;;9.50;;
12445;SDS011;6287;50.984;7.022;2024-01-15T00:35:25;22.93;;;10.73;;
12445;SDS011;6287;50.984;7.022;2024-01-15T00:37:52;25.90;;;10.80;;
12445;SDS011;6287;50.984;7.022;2024-01-15T00:40:23;26.17;;;11.07;;
12445;SDS011;6287;50.984;7.022;2024-01-15T00:42:50;26.00;;;10.93;;
12445;SDS011;6287;50.984;7.022;2024-01-15T00:45:16;24.07;;;11.17;;
12445;SDS011;6287;50.984;7.022;2024-01-15T00:47:41;20.93;;;10.07;;
12445;SDS011;6287;50.984;7.022;2024-01-15T00:50:07;21.70;;;9.90;;
12445;SDS011;6287;50.984;7.022;2024-01-15T00:52:35;27.83;;;11.33;;
12445;SDS011;6287;50.984;7.022;2024-01-15T00:55:01;23.03;;;10.87;;
12445;SDS011;6287;50.984;7.022;2024-01-15T00:57:29;26.57;;;10.30;;
12445;SDS011;6287;50.984;7.022;2024-01-15T00:59:59;24.63;;;10.83;;
12445;SDS011;6287;50.984;7.022;2024-01-15T01:02:26;23.83;;;10.13;;
12445;SDS011;6287;50.984;7.022;2024-01-15T01:04:56;23.63;;;10.77;;
12445;SDS011;6287;50.984;7.022;2024-01-15T01:07:21;27.70;;;12.00;;
12445;SDS011;6287;50.984;7.022;2024-01-15T01:09:47;23.87;;;10.17;;
12445;SDS011;6287;50.984;7.022;2024-01-15T01:12:17;27.53;;;12.03;;
12445;SDS011;6287;50.984;7.022;2024-01-15T01:14:45;30.13;;;11.83;;
12445;SDS011;6287;50.984;7.022;2024-01-15T01:17:12;22.83;;;10.63;;
12445;SDS011;6287;50.984;7.022;2024-01-15T01:19:43;30.87;;;12.40;;
12445;SDS011;6287;50.984;7.022;2024-01-15T01:22:13;27.70;;;11.37;;
12445;SDS011;6287;50.984;7.022;2024-01-15T01:24:38;26.07;;;11.10;;
12445;SDS011;6287;50.984;7.022;2024-01-15T01:27:06;20.07;;;9.63;;
12445;SDS011;6287;50.984;7.022;2024-01-15T01:29:32;23.50;;;10.33;;
12445;SDS011;6287;50.984;7.022;2024-01-15T01:31:58;28.73;;;11.67;;
12445;SDS011;6287;50.984;7.022;2024-01-15T01:34:25;26.00;;;10.63;;
12445;SDS011;6287;50.984;7.022;2024-01-15T01:36:51;27.30;;;10.97;;
12445;SDS011;6287;50.984;7.022;2024-01-15T01:39:19;28.47;;;11.43;;
12445;SDS011;6287;50.984;7.022;2024-01-15T01:41:44;24.47;;;11.53;;
12445;SDS011;6287;50.984;7.022;2024-01-15T01:44:12;24.53;;;11.00;;
12445;SDS011;6287;50.984;7.022;2024-01-15T01:46:40;25.67;;;10.77;;
12445;SDS011;6287;50.984;7.022;2024-01-15T01:49:06;26.10;;;11.47;;
12445;SDS011;6287;50.984;7.022;2024-01-15T01:51:35;29.10;;;12.03;;
12445;SDS011;6287;50.984;7.022;2024-01-15T01:54:04;27.33;;;11.77;;
12445;SDS011;6287;50.984;7.022;2024-01-15T01:56:31;24.10;;;10.70;;
12445;SDS011;6287;50.984;7.022;2024-01-15T01:58:57;26.43;;;11.10;;
12445;SDS011;6287;50.984;7.022;2024-01-15T02:01:23;21.43;;;10.00;;
12445;SDS011;6287;50.984;7.022;2024-01-15T02:03:49;22.53;;;11.47;;
12445;SDS011;6287;50.984;7.022;2024-01-15T02:06:14;25.73;;;11.43;;
12445;SDS011;6287;50.984;7.022;2024-01-15T02:08:41;23.97;;;11.83;;
12445;SDS011;6287;50.984;7.022;2024-01-15T02:11:09;29.70;;;11.30;;
12445;SDS011;6287;50.984;7.022;2024-01-15T02:13:38;22.13;;;11.13;;
12445;SDS011;6287;50.984;7.022;2024-01-15T02:16:06;25.97;;;11.33;;
12445;SDS011;6287;50.984;7.022;2024-01-15T02:18:44;22.10;;;11.90;;
12445;SDS011;6287;50.984;7.022;2024-01-15T02:21:11;23.60;;;10.97;;
12445;SDS011;6287;50.984;7.022;2024-01-15T02:23:39;25.43;;;11.20;;
12445;SDS011;6287;50.984;7.022;2024-01-15T02:26:04;25.37;;;10.63;;
12445;SDS011;6287;50.984;7.022;2024-01-15T02:28:33;26.30;;;10.77;;
12445;SDS011;6287;50.984;7.022;2024-01-15T02:31:01;19.87;;;11.87;;
12445;SDS011;6287;50.984;7.022;2024-01-15T02:33:29;23.67;;;10.63;;
12445;SDS011;6287;50.984;7.022;2024-01-15T02:35:54;25.87;;;11.43;;
12445;SDS011;6287;50.984;7.022;2024-01-15T02:38:20;20.90;;;9.73;;
12445;SDS011;6287;50.984;7.022;2024-01-15T02:40:49;22.47;;;10.90;;
12445;SDS011;6287;50.984;7.022;2024-01-15T02:43:17;21.90;;;10.93;;
12445;SDS011;6287;50.984;7.022;2024-01-15T02:45:45;26.30;;;10.80;;
12445;SDS011;6287;50.984;7.022;2024-01-15T02:48:12;24.00;;;11.20;;
12445;SDS011;6287;50.984;7.022;2024-01-15T02:50:38;22.20;;;10.57;;
12445;SDS011;6287;50.984;7.022;2024-01-15T02:53:04;23.53;;;10.00;;
12445;SDS011;6287;50.984;7.022;2024-01-15T02:55:29;28.33;;;10.20;;
12445;SDS011;6287;50.984;7.022;2024-01-15T02:58:00;23.43;;;10.80;;
12445;SDS011;6287;50.984;7.022;2024-01-15T03:00:25;26.73;;;11.17;;
12445;SDS011;6287;50.984;7.022;2024-01-15T03:02:54;24.57;;;10.77;;
12445;SDS011;6287;50.984;7.022;2024-01-15T03:05:22;21.47;;;10.73;;
12445;SDS011;6287;50.984;7.022;2024-01-15T03:07:48;25.47;;;11.17;;
12445;SDS011;6287;50.984;7.022;2024-01-15T03:10:15;25.37;;;10.87;;
12445;SDS011;6287;50.984;7.022;2024-01-15T03:12:41;23.77;;;10.33;;
12445;SDS011;6287;50.984;7.022;2024-01-15T03:15:07;24.70;;;11.57;;
12445;SDS011;6287;50.984;7.022;2024-01-15T03:17:32;21.10;;;9.43;;
12445;SDS011;6287;50.984;7.022;2024-01-15T03:20:00;24.50;;;10.37;;
12445;SDS011;6287;50.984;7.022;2024-01-15T03:22:26;21.53;;;10.63;;
12445;SDS011;6287;50.984;7.022;2024-01-15T03:24:54;27.97;;;10.70;;
12445;SDS011;6287;50.984;7.022;2024-01-15T03:27:24;24.70;;;10.40;;
12445;SDS011;6287;50.984;7.022;2024-01-15T03:29:52;22.93;;;10.43;;
12445;SDS011;6287;50.984;7.022;2024-01-15T03:32:20;25.77;;;10.77;;
12445;SDS011;6287;50.984;7.022;2024-01-15T03:34:45;25.00;;;10.87;;
12445;SDS011;6287;50.984;7.022;2024-01-15T03:37:13;21.30;;;10.17;;
12445;SDS011;6287;50.984;7.022;2024-01-15T03:39:41;20.63;;;9.53;;
12445;SDS011;6287;50.984;7.022;2024-01-15T03:42:09;21.97;;;10.37;;
12445;SDS011;6287;50.984;7.022;2024-01-15T03:44:34;23.03;;;9.53;;
12445;SDS011;6287;50.984;7.022;2024-01-15T03:47:00;19.40;;;9.50;;
12445;SDS011;6287;50.984;7.022;2024-01-15T03:49:28;19.07;;;9.33;;
12445;SDS011;6287;50.984;7.022;2024-01-15T03:51:53;22.33;;;9.77;;
12445;SDS011;6287;50.984;7.022;2024-01-15T03:54:19;24.73;;;9.63;;
12445;SDS011;6287;50.984;7.022;2024-01-15T03:56:44;20.30;;;9.93;;
12445;SDS011;6287;50.984;7.022;2024-01-15T03:59:10;19.87;;;10.30;;
12445;SDS011;6287;50.984;7.022;2024-01-15T04:01:35;22.53;;;10.23;;
12445;SDS011;6287;50.984;7.022;2024-01-15T04:04:01;19.93;;;10.07;;
12445;SDS011;6287;50.984;7.022;2024-01-15T04:06:27;25.27;;;11.27;;
12445;SDS011;6287;50.984;7.022;2024-01-15T04:08:52;19.43;;;10.17;;
12445;SDS011;6287;50.984;7.022;2024-01-15T04:11:20;24.13;;;11.50;;
12445;SDS011;6287;50.984;7.022;2024-01-15T04:13:48;22.13;;;10.00;;
12445;SDS011;6287;50.984;7.022;2024-01-15T04:16:13;25.60;;;10.60;;
12445;SDS011;6287;50.984;7.022;2024-01-15T04:18:41;27.47;;;10.87;;
12445;SDS011;6287;50.984;7.022;2024-01-15T04:21:07;20.97;;;10.63;;
12445;SDS011;6287;50.984;7.022;2024-01-15T04:23:32;21.03;;;10.83;;
12445;SDS011;6287;50.984;7.022;2024-01-15T04:26:01;21.07;;;10.23;;
12445;SDS011;6287;50.984;7.022;2024-01-15T04:28:26;24.07;;;10.43;;
12445;SDS011;6287;50.984;7.022;2024-01-15T04:30:52;25.37;;;10.03;;
12445;SDS011;6287;50.984;7.022;2024-01-15T04:33:17;21.07;;;10.67;;
12445;SDS011;6287;50.984;7.022;2024-01-15T04:35:43;19.90;;;9.53;;
12445;SDS011;6287;50.984;7.022;2024-01-15T04:38:08;19.17;;;9.73;;
12445;SDS011;6287;50.984;7.022;2024-01-15T04:40:36;20.77;;;10.37;;
12445;SDS011;6287;50.984;7.022;2024-01-15T04:43:06;24.70;;;10.93;;
12445;SDS011;6287;50.984;7.022;2024-01-15T04:45:34;27.73;;;10.60;;
12445;SDS011;6287;50.984;7.022;2024-01-15T04:48:00;18.10;;;10.27;;
12445;SDS011;6287;50.984;7.022;2024-01-15T04:50:32;23.83;;;9.03;;
12445;SDS011;6287;50.984;7.022;2024-01-15T04:52:58;18.80;;;9.37;;
12445;SDS011;6287;50.984;7.022;2024-01-15T04:55:23;26.27;;;9.70;;
12445;SDS011;6287;50.984;7.022;2024-01-15T04:57:49;21.27;;;9.70;;
12445;SDS011;6287;50.984;7.022;2024-01-15T05:00:16;22.77;;;9.77;;
12445;SDS011;6287;50.984;7.022;2024-01-15T05:02:44;22.57;;;10.90;;
12445;SDS011;6287;50.984;7.022;2024-01-15T05:05:10;21.33;;;9.13;;
12445;SDS011;6287;50.984;7.022;2024-01-15T05:07:36;17.07;;;8.30;;
12445;SDS011;6287;50.984;7.022;2024-01-15T05:10:06;20.80;;;9.60;;
12445;SDS011;6287;50.984;7.022;2024-01-15T05:12:34;15.07;;;8.03;;
12445;SDS011;6287;50.984;7.022;2024-01-15T05:15:02;18.20;;;8.93;;
12445;SDS011;6287;50.984;7.022;2024-01-15T05:17:28;18.77;;;9.20;;
12445;SDS011;6287;50.984;7.022;2024-01-15T05:19:54;17.93;;;8.73;;
12445;SDS011;6287;50.984;7.022;2024-01-15T05:22:22;16.13;;;8.40;;
12445;SDS011;6287;50.984;7.022;2024-01-15T05:24:49;15.03;;;8.47;;
12445;SDS011;6287;50.984;7.022;2024-01-15T05:27:17;19.80;;;8.33;;
12445;SDS011;6287;50.984;7.022;2024-01-15T05:29:43;17.43;;;7.77;;
12445;SDS011;6287;50.984;7.022;2024-01-15T05:32:08;16.73;;;8.37;;
12445;SDS011;6287;50.984;7.022;2024-01-15T05:34:36;19.67;;;8.70;;
12445;SDS011;6287;50.984;7.022;2024-01-15T05:37:02;16.97;;;8.10;;
12445;SDS011;6287;50.984;7.022;2024-01-15T05:39:27;15.97;;;8.03;;
12445;SDS011;6287;50.984;7.022;2024-01-15T05:41:53;14.17;;;7.77;;
12445;SDS011;6287;50.984;7.022;2024-01-15T05:44:18;18.20;;;7.53;;
12445;SDS011;6287;50.984;7.022;2024-01-15T05:46:46;16.87;;;7.43;;
12445;SDS011;6287;50.984;7.022;2024-01-15T05:49:12;16.20;;;7.27;;
12445;SDS011;6287;50.984;7.022;2024-01-15T05:51:40;13.67;;;7.23;;
12445;SDS011;6287;50.984;7.022;2024-01-15T05:54:06;13.47;;;7.10;;
12445;SDS011;6287;50.984;7.022;2024-01-15T05:56:33;13.23;;;7.37;;
12445;SDS011;6287;50.984;7.022;2024-01-15T05:59:02;12.13;;;6.33;;
12445;SDS011;6287;50.984;7.022;2024-01-15T06:01:27;13.73;;;6.73;;
12445;SDS011;6287;50.984;7.022;2024-01-15T06:03:55;8.73;;;5.57;;
12445;SDS011;6287;50.984;7.022;2024-01-15T06:06:23;15.57;;;6.40;;
12445;SDS011;6287;50.984;7.022;2024-01-15T06:08:51;9.10;;;5.60;;
12445;SDS011;6287;50.984;7.022;2024-01-15T06:11:19;11.57;;;5.87;;
12445;SDS011;6287;50.984;7.022;2024-01-15T06:13:44;12.80;;;6.30;;
12445;SDS011;6287;50.984;7.022;2024-01-15T06:16:14;10.50;;;6.20;;
12445;SDS011;6287;50.984;7.022;2024-01-15T06:18:40;9.47;;;6.40;;
12445;SDS011;6287;50.984;7.022;2024-01-15T06:21:11;11.50;;;7.00;;
12445;SDS011;6287;50.984;7.022;2024-01-15T06:23:39;15.20;;;7.00;;
12445;SDS011;6287;50.984;7.022;2024-01-15T06:26:07;15.23;;;7.17;;
12445;SDS011;6287;50.984;7.022;2024-01-15T06:28:32;16.83;;;7.37;;
12445;SDS011;6287;50.984;7.022;2024-01-15T06:31:01;16.47;;;7.43;;
12445;SDS011;6287;50.984;7.022;2024-01-15T06:33:26;12.13;;;7.00;;
12445;SDS011;6287;50.984;7.022;2024-01-15T06:35:54;13.93;;;7.27;;
12445;SDS011;6287;50.984;7.022;2024-01-15T06:38:22;12.87;;;7.03;;
12445;SDS011;6287;50.984;7.022;2024-01-15T06:40:48;15.67;;;7.80;;
12445;SDS011;6287;50.984;7.022;2024-01-15T06:43:17;14.63;;;7.70;;
12445;SDS011;6287;50.984;7.022;2024-01-15T06:45:43;12.53;;;7.30;;
12445;SDS011;6287;50.984;7.022;2024-01-15T06:48:09;12.57;;;7.83;;
12445;SDS011;6287;50.984;7.022;2024-01-15T06:50:35;13.03;;;7.27;;
12445;SDS011;6287;50.984;7.022;2024-01-15T06:53:00;13.37;;;6.87;;
12445;SDS011;6287;50.984;7.022;2024-01-15T06:55:28;13.70;;;7.53;;
12445;SDS011;6287;50.984;7.022;2024-01-15T06:57:56;13.60;;;7.23;;
12445;SDS011;6287;50.984;7.022;2024-01-15T07:00:22;14.60;;;8.20;;
12445;SDS011;6287;50.984;7.022;2024-01-15T07:02:50;16.27;;;7.50;;
12445;SDS011;6287;50.984;7.022;2024-01-15T07:05:16;11.53;;;7.50;;
12445;SDS011;6287;50.984;7.022;2024-01-15T07:07:45;13.60;;;7.90;;
12445;SDS011;6287;50.984;7.022;2024-01-15T07:10:10;16.17;;;9.07;;
12445;SDS011;6287;50.984;7.022;2024-01-15T07:12:38;15.00;;;7.37;;
12445;SDS011;6287;50.984;7.022;2024-01-15T07:15:09;14.87;;;8.10;;
12445;SDS011;6287;50.984;7.022;2024-01-15T07:17:37;19.47;;;9.03;;
12445;SDS011;6287;50.984;7.022;2024-01-15T07:20:05;18.00;;;7.63;;
12445;SDS011;6287;50.984;7.022;2024-01-15T07:22:32;15.87;;;8.23;;
12445;SDS011;6287;50.984;7.022;2024-01-15T07:24:58;15.53;;;8.63;;
12445;SDS011;6287;50.984;7.022;2024-01-15T07:27:26;15.60;;;8.40;;
12445;SDS011;6287;50.984;7.022;2024-01-15T07:29:52;18.87;;;8.37;;
12445;SDS011;6287;50.984;7.022;2024-01-15T07:32:17;16.77;;;7.80;;
12445;SDS011;6287;50.984;7.022;2024-01-15T07:34:45;13.40;;;7.73;;
12445;SDS011;6287;50.984;7.022;2024-01-15T07:37:12;16.50;;;8.27;;
12445;SDS011;6287;50.984;7.022;2024-01-15T07:39:42;16.50;;;7.67;;
12445;SDS011;6287;50.984;7.022;2024-01-15T07:42:07;13.87;;;8.23;;
12445;SDS011;6287;50.984;7.022;2024-01-15T07:44:35;15.07;;;7.67;;
12445;SDS011;6287;50.984;7.022;2024-01-15T07:47:03;14.80;;;8.10;;
12445;SDS011;6287;50.984;7.022;2024-01-15T07:49:39;17.17;;;8.57;;
12445;SDS011;6287;50.984;7.022;2024-01-15T07:52:16;13.67;;;7.63;;
12445;SDS011;6287;50.984;7.022;2024-01-15T07:54:43;15.13;;;8.13;;
12445;SDS011;6287;50.984;7.022;2024-01-15T07:57:14;12.27;;;8.03;;
12445;SDS011;6287;50.984;7.022;2024-01-15T07:59:44;15.77;;;8.83;;
12445;SDS011;6287;50.984;7.022;2024-01-15T08:02:12;17.97;;;8.53;;
12445;SDS011;6287;50.984;7.022;2024-01-15T08:04:38;17.00;;;8.10;;
12445;SDS011;6287;50.984;7.022;2024-01-15T08:07:04;18.03;;;9.00;;
12445;SDS011;6287;50.984;7.022;2024-01-15T08:09:30;13.73;;;7.57;;
12445;SDS011;6287;50.984;7.022;2024-01-15T08:11:56;18.27;;;9.67;;
12445;SDS011;6287;50.984;7.022;2024-01-15T08:14:22;15.63;;;8.47;;
12445;SDS011;6287;50.984;7.022;2024-01-15T08:16:49;22.03;;;9.87;;
12445;SDS011;6287;50.984;7.022;2024-01-15T08:19:17;19.70;;;9.43;;
12445;SDS011;6287;50.984;7.022;2024-01-15T08:21:44;18.37;;;9.47;;
12445;SDS011;6287;50.984;7.022;2024-01-15T08:24:10;17.30;;;9.23;;
12445;SDS011;6287;50.984;7.022;2024-01-15T08:26:36;15.87;;;9.70;;
12445;SDS011;6287;50.984;7.022;2024-01-15T08:29:04;16.00;;;9.57;;
12445;SDS011;6287;50.984;7.022;2024-01-15T08:31:30;17.83;;;9.40;;
12445;SDS011;6287;50.984;7.022;2024-01-15T08:33:58;21.10;;;9.10;;
12445;SDS011;6287;50.984;7.022;2024-01-15T08:36:24;22.73;;;10.57;;
12445;SDS011;6287;50.984;7.022;2024-01-15T08:38:52;18.03;;;10.03;;
12445;SDS011;6287;50.984;7.022;2024-01-15T08:41:20;18.03;;;8.63;;
12445;SDS011;6287;50.984;7.022;2024-01-15T08:43:46;19.27;;;9.90;;
12445;SDS011;6287;50.984;7.022;2024-01-15T08:46:11;17.93;;;9.17;;
12445;SDS011;6287;50.984;7.022;2024-01-15T08:48:40;17.83;;;9.70;;
12445;SDS011;6287;50.984;7.022;2024-01-15T08:51:07;18.70;;;9.40;;
12445;SDS011;6287;50.984;7.022;2024-01-15T08:53:33;18.67;;;9.30;;
12445;SDS011;6287;50.984;7.022;2024-01-15T08:55:59;16.43;;;8.87;;
12445;SDS011;6287;50.984;7.022;2024-01-15T08:58:24;16.93;;;8.53;;
12445;SDS011;6287;50.984;7.022;2024-01-15T09:00:50;18.97;;;8.60;;
12445;SDS011;6287;50.984;7.022;2024-01-15T09:03:16;13.53;;;7.83;;
12445;SDS011;6287;50.984;7.022;2024-01-15T09:05:42;18.20;;;7.97;;
12445;SDS011;6287;50.984;7.022;2024-01-15T09:08:08;18.57;;;8.57;;
12445;SDS011;6287;50.984;7.022;2024-01-15T09:10:33;19.03;;;9.40;;
12445;SDS011;6287;50.984;7.022;2024-01-15T09:12:59;18.63;;;9.57;;
12445;SDS011;6287;50.984;7.022;2024-01-15T09:15:25;15.40;;;9.37;;
12445;SDS011;6287;50.984;7.022;2024-01-15T09:17:53;15.77;;;8.73;;
12445;SDS011;6287;50.984;7.022;2024-01-15T09:20:23;16.47;;;8.70;;
12445;SDS011;6287;50.984;7.022;2024-01-15T09:22:50;14.33;;;8.80;;
12445;SDS011;6287;50.984;7.022;2024-01-15T09:25:19;14.37;;;8.70;;
12445;SDS011;6287;50.984;7.022;2024-01-15T09:27:47;15.83;;;9.37;;
12445;SDS011;6287;50.984;7.022;2024-01-15T09:30:15;17.67;;;8.67;;
12445;SDS011;6287;50.984;7.022;2024-01-15T09:32:42;17.30;;;8.50;;
12445;SDS011;6287;50.984;7.022;2024-01-15T09:35:08;13.83;;;7.67;;
12445;SDS011;6287;50.984;7.022;2024-01-15T09:37:36;13.20;;;7.70;;
12445;SDS011;6287;50.984;7.022;2024-01-15T09:40:05;13.53;;;7.40;;
12445;SDS011;6287;50.984;7.022;2024-01-15T09:42:37;12.60;;;7.07;;
12445;SDS011;6287;50.984;7.022;2024-01-15T09:45:05;11.07;;;6.00;;
12445;SDS011;6287;50.984;7.022;2024-01-15T09:47:36;9.67;;;6.30;;
12445;SDS011;6287;50.984;7.022;2024-01-15T09:50:02;10.43;;;6.23;;
12445;SDS011;6287;50.984;7.022;2024-01-15T09:52:30;9.80;;;5.90;;
12445;SDS011;6287;50.984;7.022;2024-01-15T09:54:57;8.57;;;5.30;;
12445;SDS011;6287;50.984;7.022;2024-01-15T09:57:24;7.40;;;5.17;;
12445;SDS011;6287;50.984;7.022;2024-01-15T09:59:52;7.17;;;5.17;;
12445;SDS011;6287;50.984;7.022;2024-01-15T10:02:19;8.53;;;5.10;;
12445;SDS011;6287;50.984;7.022;2024-01-15T10:04:45;8.83;;;5.10;;
12445;SDS011;6287;50.984;7.022;2024-01-15T10:07:13;7.50;;;5.10;;
12445;SDS011;6287;50.984;7.022;2024-01-15T10:09:41;8.17;;;5.00;;
12445;SDS011;6287;50.984;7.022;2024-01-15T10:12:10;6.43;;;4.67;;
12445;SDS011;6287;50.984;7.022;2024-01-15T10:14:40;8.47;;;5.00;;
12445;SDS011;6287;50.984;7.022;2024-01-15T10:17:15;7.67;;;4.80;;
12445;SDS011;6287;50.984;7.022;2024-01-15T10:19:46;5.17;;;3.80;;
12445;SDS011;6287;50.984;7.022;2024-01-15T10:22:14;6.97;;;4.50;;
12445;SDS011;6287;50.984;7.022;2024-01-15T10:24:44;7.20;;;4.57;;
12445;SDS011;6287;50.984;7.022;2024-01-15T10:27:12;6.83;;;4.83;;
12445;SDS011;6287;50.984;7.022;2024-01-15T10:29:46;7.30;;;4.67;;
12445;SDS011;6287;50.984;7.022;2024-01-15T10:32:14;5.93;;;4.73;;
12445;SDS011;6287;50.984;7.022;2024-01-15T10:34:40;6.40;;;3.93;;
12445;SDS011;6287;50.984;7.022;2024-01-15T10:37:09;7.47;;;4.80;;
12445;SDS011;6287;50.984;7.022;2024-01-15T10:39:37;6.33;;;3.93;;
12445;SDS011;6287;50.984;7.022;2024-01-15T10:42:04;4.73;;;3.43;;
12445;SDS011;6287;50.984;7.022;2024-01-15T10:44:32;5.03;;;3.73;;
12445;SDS011;6287;50.984;7.022;2024-01-15T10:47:00;5.20;;;3.77;;
12445;SDS011;6287;50.984;7.022;2024-01-15T10:49:31;4.77;;;3.50;;
12445;SDS011;6287;50.984;7.022;2024-01-15T10:51:57;3.77;;;2.90;;
12445;SDS011;6287;50.984;7.022;2024-01-15T10:54:23;5.93;;;3.00;;
12445;SDS011;6287;50.984;7.022;2024-01-15T10:56:52;3.97;;;2.90;;
12445;SDS011;6287;50.984;7.022;2024-01-15T10:59:20;3.03;;;2.67;;
12445;SDS011;6287;50.984;7.022;2024-01-15T11:01:47;4.93;;;3.20;;
12445;SDS011;6287;50.984;7.022;2024-01-15T11:04:14;6.17;;;2.60;;
12445;SDS011;6287;50.984;7.022;2024-01-15T11:06:45;3.67;;;2.73;;
12445;SDS011;6287;50.984;7.022;2024-01-15T11:09:14;3.83;;;2.87;;
12445;SDS011;6287;50.984;7.022;2024-01-15T11:11:43;3.30;;;2.90;;
12445;SDS011;6287;50.984;7.022;2024-01-15T11:14:33;3.40;;;3.03;;
12445;SDS011;6287;50.984;7.022;2024-01-15T11:16:59;3.30;;;2.77;;
12445;SDS011;6287;50.984;7.022;2024-01-15T11:19:37;3.30;;;2.87;;
12445;SDS011;6287;50.984;7.022;2024-01-15T11:22:07;3.57;;;2.77;;
12445;SDS011;6287;50.984;7.022;2024-01-15T11:24:54;3.30;;;2.63;;
12445;SDS011;6287;50.984;7.022;2024-01-15T11:27:39;3.03;;;2.23;;
12445;SDS011;6287;50.984;7.022;2024-01-15T11:30:09;3.93;;;2.17;;
12445;SDS011;6287;50.984;7.022;2024-01-15T11:32:39;2.60;;;2.33;;
12445;SDS011;6287;50.984;7.022;2024-01-15T11:35:07;2.50;;;2.30;;
12445;SDS011;6287;50.984;7.022;2024-01-15T11:40:22;2.70;;;2.00;;
12445;SDS011;6287;50.984;7.022;2024-01-15T11:42:57;2.87;;;1.83;;
12445;SDS011;6287;50.984;7.022;2024-01-15T11:45:23;1.80;;;1.70;;
12445;SDS011;6287;50.984;7.022;2024-01-15T11:50:26;2.57;;;2.37;;
12445;SDS011;6287;50.984;7.022;2024-01-15T11:53:26;2.70;;;2.60;;
12445;SDS011;6287;50.984;7.022;2024-01-15T11:56:05;3.03;;;2.80;;
12445;SDS011;6287;50.984;7.022;2024-01-15T11:58:36;2.63;;;2.40;;
12445;SDS011;6287;50.984;7.022;2024-01-15T12:01:08;3.93;;;3.50;;
12445;SDS011;6287;50.984;7.022;2024-01-15T12:03:34;3.13;;;2.83;;
12445;SDS011;6287;50.984;7.022;2024-01-15T12:06:02;3.77;;;3.10;;
12445;SDS011;6287;50.984;7.022;2024-01-15T12:08:30;3.77;;;3.00;;
12445;SDS011;6287;50.984;7.022;2024-01-15T12:10:58;4.50;;;3.30;;
12445;SDS011;6287;50.984;7.022;2024-01-15T12:13:23;5.90;;;3.50;;
12445;SDS011;6287;50.984;7.022;2024-01-15T12:15:49;3.70;;;3.40;;
12445;SDS011;6287;50.984;7.022;2024-01-15T12:18:15;6.50;;;3.90;;
12445;SDS011;6287;50.984;7.022;2024-01-15T12:20:44;7.23;;;3.93;;
12445;SDS011;6287;50.984;7.022;2024-01-15T12:23:15;5.27;;;4.23;;
12445;SDS011;6287;50.984;7.022;2024-01-15T12:25:42;6.43;;;4.17;;
12445;SDS011;6287;50.984;7.022;2024-01-15T12:28:08;7.70;;;4.03;;
12445;SDS011;6287;50.984;7.022;2024-01-15T12:30:36;7.33;;;4.30;;
12445;SDS011;6287;50.984;7.022;2024-01-15T12:33:04;10.63;;;5.27;;
12445;SDS011;6287;50.984;7.022;2024-01-15T12:35:33;5.57;;;3.67;;
12445;SDS011;6287;50.984;7.022;2024-01-15T12:37:59;6.17;;;4.47;;
12445;SDS011;6287;50.984;7.022;2024-01-15T12:40:27;5.57;;;3.60;;
12445;SDS011;6287;50.984;7.022;2024-01-15T12:42:53;5.10;;;3.73;;
12445;SDS011;6287;50.984;7.022;2024-01-15T12:45:24;6.00;;;3.20;;
12445;SDS011;6287;50.984;7.022;2024-01-15T12:47:52;10.63;;;4.03;;
12445;SDS011;6287;50.984;7.022;2024-01-15T12:50:18;9.20;;;3.73;;
12445;SDS011;6287;50.984;7.022;2024-01-15T12:52:44;4.70;;;3.00;;
12445;SDS011;6287;50.984;7.022;2024-01-15T12:55:13;6.77;;;3.23;;
12445;SDS011;6287;50.984;7.022;2024-01-15T12:57:41;6.00;;;3.10;;
12445;SDS011;6287;50.984;7.022;2024-01-15T13:00:09;5.30;;;3.67;;
12445;SDS011;6287;50.984;7.022;2024-01-15T13:02:41;5.73;;;3.47;;
12445;SDS011;6287;50.984;7.022;2024-01-15T13:05:12;6.07;;;3.57;;
12445;SDS011;6287;50.984;7.022;2024-01-15T13:07:38;5.53;;;3.77;;
12445;SDS011;6287;50.984;7.022;2024-01-15T13:10:06;9.00;;;3.60;;
12445;SDS011;6287;50.984;7.022;2024-01-15T13:12:33;6.53;;;3.50;;
12445;SDS011;6287;50.984;7.022;2024-01-15T13:14:58;7.80;;;2.90;;
12445;SDS011;6287;50.984;7.022;2024-01-15T13:17:28;5.43;;;3.00;;
12445;SDS011;6287;50.984;7.022;2024-01-15T13:19:57;7.37;;;3.33;;
12445;SDS011;6287;50.984;7.022;2024-01-15T13:22:22;5.23;;;3.07;;
12445;SDS011;6287;50.984;7.022;2024-01-15T13:24:57;4.67;;;2.93;;
12445;SDS011;6287;50.984;7.022;2024-01-15T13:27:23;6.13;;;3.20;;
12445;SDS011;6287;50.984;7.022;2024-01-15T13:29:49;6.20;;;2.90;;
12445;SDS011;6287;50.984;7.022;2024-01-15T13:32:22;4.37;;;2.57;;
12445;SDS011;6287;50.984;7.022;2024-01-15T13:34:51;6.50;;;2.20;;
12445;SDS011;6287;50.984;7.022;2024-01-15T13:37:16;3.90;;;2.07;;
12445;SDS011;6287;50.984;7.022;2024-01-15T13:39:44;5.17;;;2.40;;
12445;SDS011;6287;50.984;7.022;2024-01-15T13:42:12;2.80;;;2.33;;
12445;SDS011;6287;50.984;7.022;2024-01-15T13:44:38;3.17;;;2.57;;
12445;SDS011;6287;50.984;7.022;2024-01-15T13:47:09;3.07;;;2.30;;
12445;SDS011;6287;50.984;7.022;2024-01-15T13:49:38;5.40;;;2.20;;
12445;SDS011;6287;50.984;7.022;2024-01-15T13:52:09;5.00;;;2.40;;
12445;SDS011;6287;50.984;7.022;2024-01-15T13:54:37;2.53;;;2.33;;
12445;SDS011;6287;50.984;7.022;2024-01-15T13:57:05;2.70;;;2.20;;
12445;SDS011;6287;50.984;7.022;2024-01-15T13:59:31;3.47;;;2.30;;
12445;SDS011;6287;50.984;7.022;2024-01-15T14:01:57;5.30;;;2.13;;
12445;SDS011;6287;50.984;7.022;2024-01-15T14:04:23;4.03;;;2.57;;
12445;SDS011;6287;50.984;7.022;2024-01-15T14:06:48;3.77;;;2.27;;
12445;SDS011;6287;50.984;7.022;2024-01-15T14:09:14;2.57;;;2.37;;
12445;SDS011;6287;50.984;7.022;2024-01-15T14:11:39;2.70;;;2.33;;
12445;SDS011;6287;50.984;7.022;2024-01-15T14:14:05;5.40;;;2.40;;
12445;SDS011;6287;50.984;7.022;2024-01-15T14:16:33;3.07;;;1.63;;
12445;SDS011;6287;50.984;7.022;2024-01-15T14:18:58;2.17;;;1.90;;
12445;SDS011;6287;50.984;7.022;2024-01-15T14:21:30;1.50;;;1.40;;
12445;SDS011;6287;50.984;7.022;2024-01-15T14:23:58;3.93;;;2.03;;
12445;SDS011;6287;50.984;7.022;2024-01-15T14:26:23;1.83;;;1.73;;
12445;SDS011;6287;50.984;7.022;2024-01-15T14:28:49;2.57;;;1.63;;
12445;SDS011;6287;50.984;7.022;2024-01-15T14:31:15;3.03;;;1.73;;
12445;SDS011;6287;50.984;7.022;2024-01-15T14:33:40;2.10;;;1.40;;
12445;SDS011;6287;50.984;7.022;2024-01-15T14:36:06;2.13;;;1.93;;
12445;SDS011;6287;50.984;7.022;2024-01-15T14:38:31;1.60;;;1.50;;
12445;SDS011;6287;50.984;7.022;2024-01-15T14:40:57;1.77;;;1.67;;
12445;SDS011;6287;50.984;7.022;2024-01-15T14:43:23;1.73;;;1.57;;
12445;SDS011;6287;50.984;7.022;2024-01-15T14:45:51;2.03;;;1.50;;
12445;SDS011;6287;50.984;7.022;2024-01-15T14:48:16;3.57;;;2.10;;
12445;SDS011;6287;50.984;7.022;2024-01-15T14:50:42;1.83;;;1.47;;
12445;SDS011;6287;50.984;7.022;2024-01-15T14:53:10;2.20;;;1.93;;
12445;SDS011;6287;50.984;7.022;2024-01-15T14:55:35;1.63;;;1.53;;